Time;durP1;ratioP1;P1;durP2;ratioP2;P2;SDS_P1;SDS_P2;PMS_P1;PMS_P2;Temp;Humidity;BMP_temperature;BMP_pressure;BME280_temperature;BME280_humidity;BME280_pressure;Samples;Min_cycle;Max_cycle;Signal;HPM_P1;HPM_P2
2020/12/18 00:00:34;;;;;;;9.85;1.42;;;;;;;13.29;76.86;100038.72;5066514;28;20020;-93
2020/12/18 00:02:59;;;;;;;9.50;1.85;;;;;;;13.51;75.99;100044.78;5053116;28;20017;-94
2020/12/18 00:05:25;;;;;;;5.32;0.85;;;;;;;13.28;76.90;100044.94;5052779;28;20490;-93
2020/12/18 00:07:50;;;;;;;10.95;1.45;;;;;;;13.23;76.73;100052.41;5052574;28;20463;-94
2020/12/18 00:10:16;;;;;;;8.25;1.60;;;;;;;13.52;76.47;100059.66;5053033;28;20029;-93
2020/12/18 00:12:41;;;;;;;7.95;1.58;;;;;;;13.51;76.55;100044.78;5055396;28;20056;-90
2020/12/18 00:15:06;;;;;;;9.07;1.35;;;;;;;13.49;76.07;100064.25;5063434;28;20112;-92
2020/12/18 00:17:32;;;;;;;4.75;1.10;;;;;;;13.44;77.07;100069.06;5052492;28;20021;-92
2020/12/18 00:19:57;;;;;;;9.85;1.40;;;;;;;13.56;75.93;100061.91;5052582;28;20028;-93
2020/12/18 00:22:24;;;;;;;7.07;1.30;;;;;;;13.20;77.24;100063.22;5051627;28;20052;-93
2020/12/18 00:24:49;;;;;;;4.40;0.80;;;;;;;13.53;76.39;100069.28;5051742;28;20545;-93
2020/12/18 00:27:15;;;;;;;8.43;1.35;;;;;;;13.47;76.40;100074.09;5051524;28;20029;-93
2020/12/18 00:29:40;;;;;;;7.45;1.10;;;;;;;13.49;76.44;100069.53;5051633;28;20023;-92
2020/12/18 00:32:05;;;;;;;12.82;1.65;;;;;;;13.77;75.43;100066.31;5061344;28;20033;-92
2020/12/18 00:34:31;;;;;;;6.28;1.30;;;;;;;13.73;75.54;100071.00;5067092;28;20082;-92
2020/12/18 00:36:56;;;;;;;10.63;1.38;;;;;;;13.67;75.53;100056.53;5067067;28;20025;-91
2020/12/18 00:39:22;;;;;;;9.38;1.70;;;;;;;13.56;76.63;100063.72;5055323;28;20360;-92
2020/12/18 00:41:53;;;;;;;9.77;2.00;;;;;;;13.82;75.60;100064.94;5051977;28;20033;-92
2020/12/18 00:44:19;;;;;;;;;;;;;;;13.84;75.64;100067.44;5053177;28;20032;-92
2020/12/18 00:46:44;;;;;;;10.80;1.70;;;;;;;13.46;76.68;100058.38;5052594;28;19916;-92
2020/12/18 00:49:10;;;;;;;14.98;1.58;;;;;;;13.55;77.00;100060.25;5051005;28;20143;-92
2020/12/18 00:51:35;;;;;;;9.65;1.60;;;;;;;13.75;75.97;100063.81;5051170;28;20036;-91
2020/12/18 00:54:00;;;;;;;6.90;1.35;;;;;;;13.83;75.88;100047.31;5052792;28;20029;-92
2020/12/18 00:56:26;;;;;;;9.50;1.73;;;;;;;13.42;77.68;100056.97;5056124;28;20115;-91
2020/12/18 00:58:51;;;;;;;7.43;1.83;;;;;;;13.66;76.95;100048.75;5056336;28;20463;-92
2020/12/18 01:01:16;;;;;;;7.70;1.38;;;;;;;13.70;76.24;100039.59;5055926;28;20387;-92
2020/12/18 01:03:42;;;;;;;10.32;1.60;;;;;;;13.84;75.91;100049.81;5055902;28;20083;-93
2020/12/18 01:06:08;;;;;;;9.05;1.52;;;;;;;13.89;75.97;100037.03;5055917;28;20096;-92
2020/12/18 01:08:34;;;;;;;11.07;1.92;;;;;;;13.58;76.91;100022.22;5054726;28;20119;-91
2020/12/18 01:11:04;;;;;;;9.65;2.00;;;;;;;13.44;77.49;100036.59;5054453;28;20052;-93
2020/12/18 01:13:30;;;;;;;13.30;2.90;;;;;;;13.48;77.79;100022.16;5055965;28;20094;-92
2020/12/18 01:15:56;;;;;;;11.02;1.90;;;;;;;13.33;77.93;100026.13;5054973;28;20028;-92
2020/12/18 01:18:22;;;;;;;12.48;1.92;;;;;;;13.24;78.98;100025.09;5055490;28;20017;-93
2020/12/18 01:20:48;;;;;;;11.45;2.72;;;;;;;13.31;78.26;100021.00;5054516;28;20059;-92
2020/12/18 01:23:13;;;;;;;9.90;1.65;;;;;;;13.46;78.14;100009.09;5054382;28;20052;-93
2020/12/18 01:25:39;;;;;;;16.88;1.92;;;;;;;13.29;78.34;100020.25;5054375;28;20047;-93
2020/12/18 01:28:04;;;;;;;13.13;1.50;;;;;;;13.49;77.50;100016.75;5054492;28;20497;-92
2020/12/18 01:30:29;;;;;;;8.18;1.48;;;;;;;13.54;77.71;100004.97;5054340;28;20021;-92
2020/12/18 01:32:55;;;;;;;10.07;2.63;;;;;;;13.41;77.95;99992.88;5055416;28;20032;-92
2020/12/18 01:35:20;;;;;;;8.82;2.28;;;;;;;13.32;78.69;99985.75;5055273;28;20021;-93
2020/12/18 01:37:45;;;;;;;7.85;1.60;;;;;;;13.37;78.34;99988.81;5054507;28;20037;-93
2020/12/18 01:40:11;;;;;;;11.90;1.80;;;;;;;13.38;78.45;99985.19;5055232;28;20063;-91
2020/12/18 01:42:36;;;;;;;6.43;2.15;;;;;;;13.36;78.66;99971.31;5055733;28;20470;-93
2020/12/18 01:45:02;;;;;;;10.93;1.90;;;;;;;13.41;78.42;99966.50;5054008;28;20040;-92
2020/12/18 01:47:31;;;;;;;11.23;2.13;;;;;;;13.43;77.99;99995.38;5063516;28;20052;-92
2020/12/18 01:52:28;;;;;;;12.18;1.85;;;;;;;13.33;78.25;99978.66;5099088;28;20024;-89
2020/12/18 01:54:57;;;;;;;11.63;1.85;;;;;;;13.50;78.20;99999.13;5100277;28;20059;-89
2020/12/18 01:57:24;;;;;;;8.38;1.35;;;;;;;13.48;77.85;99978.16;5100211;28;20016;-90
2020/12/18 01:59:50;;;;;;;8.38;1.52;;;;;;;13.61;77.48;99992.94;5099165;28;20044;-90
2020/12/18 02:02:16;;;;;;;11.85;1.77;;;;;;;13.45;78.31;99982.88;5099986;28;20021;-88
2020/12/18 02:04:45;;;;;;;9.45;2.35;;;;;;;13.66;77.38;99959.06;5099557;28;20040;-90
2020/12/18 02:07:23;;;;;;;11.07;1.75;;;;;;;13.71;77.35;99982.41;5099947;28;20040;-90
2020/12/18 02:09:50;;;;;;;5.30;1.50;;;;;;;13.66;77.91;99972.25;5082051;28;20100;-91
2020/12/18 02:12:15;;;;;;;7.80;1.20;;;;;;;13.83;76.99;99971.59;5078161;28;20029;-91
2020/12/18 02:14:41;;;;;;;11.30;2.03;;;;;;;13.60;77.83;99972.78;5074486;28;20554;-91
2020/12/18 02:17:07;;;;;;;10.13;1.65;;;;;;;13.70;76.99;99955.19;5056284;28;20617;-91
2020/12/18 02:19:34;;;;;;;14.40;2.45;;;;;;;13.58;78.07;99967.63;5074155;28;20021;-91
2020/12/18 02:22:17;;;;;;;12.82;3.03;;;;;;;13.74;77.39;99948.66;5074585;28;20028;-92
2020/12/18 02:25:04;;;;;;;10.63;1.95;;;;;;;13.59;77.59;99964.06;5074154;28;20111;-90
2020/12/18 02:27:29;;;;;;;10.35;1.92;;;;;;;13.59;77.57;99965.88;5074283;28;20101;-88
2020/12/18 02:29:55;;;;;;;12.18;2.00;;;;;;;13.70;77.00;99944.63;5073758;28;20079;-91
2020/12/18 02:32:21;;;;;;;10.13;2.15;;;;;;;13.67;77.27;99958.94;5074054;28;20032;-92
2020/12/18 02:34:47;;;;;;;12.73;1.65;;;;;;;13.93;76.44;99960.25;5074477;28;20024;-92
2020/12/18 02:37:12;;;;;;;10.45;1.48;;;;;;;13.86;76.90;99949.38;5074180;28;20026;-90
2020/12/18 02:39:38;;;;;;;15.88;1.88;;;;;;;13.79;77.19;99953.53;5073835;28;20033;-90
2020/12/18 02:42:03;;;;;;;10.82;2.08;;;;;;;14.00;76.51;99948.13;5055765;28;20512;-90
2020/12/18 02:44:29;;;;;;;9.48;1.60;;;;;;;13.82;77.01;99948.84;5056192;28;20027;-91
2020/12/18 02:46:54;;;;;;;8.43;1.45;;;;;;;13.88;76.64;99948.28;5073707;28;20463;-92
2020/12/18 02:49:19;;;;;;;12.43;1.55;;;;;;;13.81;76.81;99957.72;5073930;28;20025;-90
2020/12/18 02:51:45;;;;;;;9.60;1.80;;;;;;;13.83;76.75;99945.22;5056000;28;20035;-90
2020/12/18 02:54:11;;;;;;;8.40;1.27;;;;;;;13.66;77.33;99930.91;5056233;28;20442;-90
2020/12/18 02:56:37;;;;;;;15.10;1.90;;;;;;;13.67;77.63;99934.38;5073704;28;20382;-92
2020/12/18 02:59:03;;;;;;;11.77;1.90;;;;;;;13.90;76.92;99934.94;5074170;28;20024;-91
2020/12/18 03:01:28;;;;;;;10.25;1.50;;;;;;;13.90;76.79;99945.50;5055883;28;20036;-92
2020/12/18 03:03:54;;;;;;;9.80;1.80;;;;;;;14.07;76.10;99928.16;5055906;28;20446;-92
2020/12/18 03:06:19;;;;;;;11.07;1.33;;;;;;;13.84;76.71;99931.06;5073156;28;20078;-91
2020/12/18 03:08:45;;;;;;;15.40;1.50;;;;;;;13.71;77.73;99932.28;5073732;28;20031;-90
2020/12/18 03:11:12;;;;;;;9.48;1.88;;;;;;;14.18;76.02;99928.03;5076019;28;20543;-91
2020/12/18 03:13:38;;;;;;;9.60;1.67;;;;;;;14.13;75.82;99924.94;5062376;28;20466;-91
2020/12/18 03:16:03;;;;;;;15.65;1.90;;;;;;;14.09;75.64;99918.28;5082413;28;20055;-92
2020/12/18 03:18:28;;;;;;;11.45;1.20;;;;;;;13.74;76.93;99924.09;5064593;28;20021;-92
2020/12/18 03:20:54;;;;;;;9.23;1.27;;;;;;;13.93;76.23;99924.13;5057383;28;20386;-92
2020/12/18 03:23:19;;;;;;;8.10;1.23;;;;;;;13.75;77.47;99912.56;5073677;28;20029;-90
2020/12/18 03:25:45;;;;;;;4.93;1.00;;;;;;;13.75;77.29;99909.94;5055045;28;20117;-92
2020/12/18 03:28:10;;;;;;;15.70;1.40;;;;;;;14.00;76.37;99901.50;5055597;28;20028;-92
2020/12/18 03:30:35;;;;;;;8.38;1.35;;;;;;;14.09;75.35;99897.16;5055626;28;20029;-92
2020/12/18 03:33:01;;;;;;;8.95;1.08;;;;;;;14.24;75.70;99903.69;5073286;28;20543;-91
2020/12/18 03:35:27;;;;;;;4.38;0.75;;;;;;;13.89;76.55;99896.34;5055471;28;20089;-92
2020/12/18 03:37:53;;;;;;;6.00;0.90;;;;;;;14.00;76.13;99908.53;5055514;28;20032;-91
2020/12/18 03:40:19;;;;;;;4.55;0.73;;;;;;;13.84;77.58;99883.56;5055609;28;20038;-92
2020/12/18 03:42:44;;;;;;;3.88;0.60;;;;;;;13.97;76.00;99869.25;5064488;28;20029;-92
2020/12/18 03:45:10;;;;;;;5.28;0.80;;;;;;;13.99;76.63;99875.22;5073817;28;20481;-91
2020/12/18 03:47:35;;;;;;;2.58;0.63;;;;;;;14.07;76.12;99884.09;5073728;28;20101;-92
2020/12/18 03:50:01;;;;;;;4.80;0.95;;;;;;;14.13;76.08;99881.88;5056754;28;20115;-92
2020/12/18 03:52:28;;;;;;;1.73;0.40;;;;;;;13.96;76.40;99889.53;5054603;28;20028;-91
2020/12/18 03:54:54;;;;;;;5.38;1.25;;;;;;;13.98;76.91;99899.94;5054902;28;20486;-92
2020/12/18 03:57:19;;;;;;;3.45;0.45;;;;;;;14.12;76.04;99881.06;5072653;28;20052;-92
2020/12/18 03:59:44;;;;;;;3.50;0.50;;;;;;;13.83;77.16;99873.97;5054565;28;20021;-91
2020/12/18 04:02:10;;;;;;;4.18;0.45;;;;;;;14.10;76.18;99877.72;5054293;28;20033;-91
2020/12/18 04:04:35;;;;;;;3.50;0.50;;;;;;;13.99;76.34;99885.78;5064585;28;20028;-92
2020/12/18 04:07:00;;;;;;;4.05;0.47;;;;;;;13.93;76.86;99878.44;5056264;28;20549;-92
2020/12/18 04:09:26;;;;;;;3.90;0.40;;;;;;;14.04;76.44;99878.25;5073556;28;20033;-91
2020/12/18 04:11:51;;;;;;;3.00;0.38;;;;;;;14.20;76.29;99880.38;5054502;28;20064;-91
2020/12/18 04:14:16;;;;;;;4.43;0.40;;;;;;;13.89;76.77;99865.50;5054824;28;20032;-92
2020/12/18 04:16:42;;;;;;;4.35;0.57;;;;;;;14.15;76.40;99857.00;5074397;28;20075;-91
2020/12/18 04:19:07;;;;;;;3.17;0.45;;;;;;;14.10;76.42;99846.06;5055282;28;20024;-93
2020/12/18 04:21:33;;;;;;;1.98;0.30;;;;;;;14.05;76.53;99869.38;5047022;28;20040;-91
2020/12/18 04:23:58;;;;;;;2.20;0.30;;;;;;;13.94;76.82;99866.88;5071503;28;20111;-91
2020/12/18 04:26:24;;;;;;;1.23;0.20;;;;;;;13.89;76.90;99877.84;5054531;28;20024;-90
2020/12/18 04:28:50;;;;;;;3.22;0.30;;;;;;;13.73;77.54;99838.84;5071988;28;20391;-92
2020/12/18 04:31:16;;;;;;;2.83;0.22;;;;;;;14.02;76.79;99851.16;5054586;28;20021;-92
2020/12/18 04:33:42;;;;;;;1.85;0.43;;;;;;;13.98;77.22;99869.13;5054774;28;20502;-92
2020/12/18 04:36:08;;;;;;;4.35;1.05;;;;;;;13.98;76.55;99855.06;5055057;28;20043;-91
2020/12/18 04:38:33;;;;;;;0.63;0.17;;;;;;;14.07;76.67;99865.63;5071879;28;20005;-92
2020/12/18 04:40:59;;;;;;;3.38;0.25;;;;;;;14.07;76.67;99859.50;5097566;28;20076;-91
2020/12/18 04:43:24;;;;;;;0.45;0.10;;;;;;;14.11;76.33;99873.28;5076236;28;20020;-90
2020/12/18 04:45:56;;;;;;;1.45;0.25;;;;;;;14.13;76.50;99871.31;5080948;28;20032;-92
2020/12/18 04:48:24;;;;;;;;;;;;;;;14.07;76.63;99864.78;5062370;28;20031;-92
2020/12/18 04:50:51;;;;;;;2.90;0.20;;;;;;;14.24;76.42;99877.28;5054784;28;20385;-92
2020/12/18 04:53:25;;;;;;;1.70;0.40;;;;;;;14.40;75.40;99862.69;5054664;28;20025;-92
2020/12/18 04:55:53;;;;;;;0.85;0.17;;;;;;;14.07;76.63;99870.91;5054326;28;20094;-92
2020/12/18 04:58:21;;;;;;;0.80;0.20;;;;;;;14.14;76.47;99863.28;5054305;28;20044;-92
2020/12/18 05:00:47;;;;;;;2.05;0.30;;;;;;;14.38;75.22;99864.63;5053654;28;20502;-88
2020/12/18 05:03:14;;;;;;;0.43;0.20;;;;;;;14.22;76.26;99866.03;5071290;28;20107;-89
2020/12/18 05:05:40;;;;;;;1.75;0.30;;;;;;;14.33;75.79;99862.41;5071612;28;20485;-88
2020/12/18 05:08:05;;;;;;;1.48;0.10;;;;;;;14.40;75.28;99857.41;5071320;28;20025;-88
2020/12/18 05:10:31;;;;;;;1.23;0.20;;;;;;;14.21;76.51;99861.72;5071277;28;20048;-88
2020/12/18 05:12:56;;;;;;;0.73;0.10;;;;;;;14.14;75.90;99863.28;5071446;28;20033;-87
2020/12/18 05:15:21;;;;;;;0.68;0.20;;;;;;;14.33;75.74;99848.38;5071333;28;20035;-88
2020/12/18 05:17:51;;;;;;;4.28;0.40;;;;;;;14.18;76.02;99845.31;5071021;28;20032;-87
2020/12/18 05:20:16;;;;;;;1.85;0.20;;;;;;;14.11;76.48;99857.44;5071500;28;20025;-88
2020/12/18 05:22:42;;;;;;;0.90;0.22;;;;;;;14.33;75.63;99845.72;5071840;28;20028;-88
2020/12/18 05:25:09;;;;;;;6.45;0.57;;;;;;;14.32;75.85;99849.34;5070957;28;20477;-88
2020/12/18 05:27:39;;;;;;;0.93;0.15;;;;;;;14.35;75.44;99836.69;5071436;28;20449;-88
2020/12/18 05:30:06;;;;;;;1.17;0.20;;;;;;;14.17;76.71;99862.16;5071491;28;20033;-88
2020/12/18 05:32:34;;;;;;;1.95;0.20;;;;;;;13.97;77.14;99867.44;5073937;28;20028;-86
2020/12/18 05:34:59;;;;;;;0.80;0.00;;;;;;;13.83;78.01;99871.31;5084267;28;20031;-89
2020/12/18 05:37:34;;;;;;;0.80;0.20;;;;;;;14.07;77.11;99864.78;5072388;28;20036;-88
2020/12/18 05:40:00;;;;;;;0.32;0.10;;;;;;;14.09;76.99;99861.03;5066322;28;20062;-88
2020/12/18 05:42:25;;;;;;;1.15;0.28;;;;;;;14.11;77.30;99863.53;5074423;28;20086;-88
2020/12/18 05:44:51;;;;;;;1.50;0.25;;;;;;;14.07;77.37;99872.72;5074740;28;20028;-88
2020/12/18 05:47:16;;;;;;;0.43;0.17;;;;;;;13.89;78.43;99868.13;5055672;28;20123;-88
2020/12/18 05:49:41;;;;;;;2.10;0.45;;;;;;;13.98;77.69;99871.75;5056164;28;20490;-88
2020/12/18 05:52:17;;;;;;;1.45;0.30;;;;;;;14.32;76.07;99846.72;5072393;28;20024;-88
2020/12/18 05:54:42;;;;;;;2.08;0.50;;;;;;;14.19;77.16;99861.03;5056706;28;20024;-88
2020/12/18 05:57:13;;;;;;;1.92;0.30;;;;;;;14.41;76.22;99861.69;5074785;28;20021;-88
2020/12/18 05:59:41;;;;;;;1.30;0.20;;;;;;;14.34;76.63;99857.97;5072347;28;20386;-88
2020/12/18 06:02:12;;;;;;;6.32;0.50;;;;;;;14.11;76.17;99863.53;5073671;28;20050;-88
2020/12/18 06:04:38;;;;;;;0.38;0.10;;;;;;;14.31;76.42;99863.53;5073864;28;20031;-87
2020/12/18 06:07:03;;;;;;;1.92;0.38;;;;;;;14.23;76.44;99867.69;5073916;28;20033;-88
2020/12/18 06:09:28;;;;;;;3.25;0.40;;;;;;;14.38;75.68;99844.31;5074337;28;20024;-87
2020/12/18 06:11:54;;;;;;;2.30;0.40;;;;;;;14.47;75.75;99839.97;5073563;28;20028;-87
2020/12/18 06:14:20;;;;;;;1.10;0.20;;;;;;;14.19;76.29;99860.19;5073497;28;20024;-88
2020/12/18 06:16:50;;;;;;;1.00;0.30;;;;;;;14.12;77.19;99806.28;5073712;28;20074;-88
2020/12/18 06:19:18;;;;;;;0.88;0.50;;;;;;;13.67;78.31;99795.38;5074031;28;20067;-87
2020/12/18 06:21:50;;;;;;;0.70;0.40;;;;;;;14.00;77.62;99792.41;5074067;28;20012;-88
2020/12/18 06:24:15;;;;;;;1.63;0.57;;;;;;;14.21;77.03;99794.88;5073698;28;20028;-88
2020/12/18 06:26:41;;;;;;;1.27;0.40;;;;;;;14.20;77.27;99782.69;5073455;28;20028;-87
2020/12/18 06:29:07;;;;;;;2.42;0.38;;;;;;;14.09;77.52;99754.63;5073285;28;20051;-87
2020/12/18 06:31:34;;;;;;;0.63;0.20;;;;;;;14.35;76.29;99765.38;5073463;28;20032;-87
2020/12/18 06:34:04;;;;;;;0.93;0.45;;;;;;;14.35;76.57;99743.41;5073549;28;20445;-88
2020/12/18 06:36:47;;;;;;;1.17;0.30;;;;;;;13.92;77.73;99752.69;5055809;28;20020;-88
2020/12/18 06:39:27;;;;;;;0.95;0.30;;;;;;;14.08;77.55;99758.25;5054864;28;20025;-87
2020/12/18 06:42:19;;;;;;;1.40;0.30;;;;;;;13.91;77.92;99759.78;5073071;28;20481;-87
2020/12/18 06:44:50;;;;;;;0.90;0.20;;;;;;;13.93;78.22;99770.22;5074982;28;20025;-86
2020/12/18 06:47:24;;;;;;;1.45;0.13;;;;;;;14.11;77.38;99763.22;5078959;28;20041;-87
2020/12/18 06:49:56;;;;;;;1.30;0.10;;;;;;;14.02;77.40;99769.34;5074173;28;20025;-88
2020/12/18 06:52:46;;;;;;;3.38;0.40;;;;;;;14.28;76.93;99780.16;5072664;28;20051;-88
2020/12/18 06:55:32;;;;;;;1.35;0.30;;;;;;;14.25;76.72;99790.97;5071862;28;20375;-88
2020/12/18 06:58:04;;;;;;;4.57;0.40;;;;;;;14.21;77.52;99792.25;5072388;28;20486;-88
2020/12/18 07:00:31;;;;;;;1.35;0.38;;;;;;;14.01;77.71;99802.00;5073024;28;20032;-88
2020/12/18 07:02:57;;;;;;;1.90;0.25;;;;;;;14.01;77.68;99788.81;5073493;28;20071;-88
2020/12/18 07:05:39;;;;;;;4.80;0.82;;;;;;;13.91;78.05;99838.16;5073210;28;20048;-86
2020/12/18 07:08:13;;;;;;;4.75;1.08;;;;;;;14.00;77.94;99829.38;5053031;28;20028;-88
2020/12/18 07:10:46;;;;;;;3.50;0.73;;;;;;;14.10;77.65;99824.94;5053551;28;20021;-88
2020/12/18 07:13:14;;;;;;;2.97;0.90;;;;;;;14.00;77.63;99821.44;5053155;28;20112;-88
2020/12/18 07:15:50;;;;;;;2.90;0.80;;;;;;;14.08;77.74;99837.44;5069218;28;20020;-88
2020/12/18 07:18:27;;;;;;;3.67;0.70;;;;;;;14.06;77.78;99823.56;5054022;28;20033;-89
2020/12/18 07:20:59;;;;;;;1.65;0.50;;;;;;;14.04;78.10;99820.19;5072672;28;20078;-88
2020/12/18 07:23:28;;;;;;;3.38;0.60;;;;;;;13.91;78.90;99809.94;5072805;28;20488;-88
2020/12/18 07:25:54;;;;;;;1.00;0.40;;;;;;;13.89;77.92;99801.31;5073983;28;20048;-88
2020/12/18 07:28:21;;;;;;;4.32;0.70;;;;;;;13.83;78.73;99818.56;5065682;28;20474;-88
2020/12/18 07:30:48;;;;;;;2.08;0.40;;;;;;;14.05;77.59;99811.31;5072562;28;20478;-88
2020/12/18 07:33:15;;;;;;;2.45;0.40;;;;;;;14.04;77.92;99841.31;5072521;28;20074;-89
2020/12/18 07:35:49;;;;;;;2.05;0.60;;;;;;;13.89;78.32;99815.34;5071614;28;20086;-88
2020/12/18 07:38:32;;;;;;;1.70;0.60;;;;;;;13.94;78.16;99808.81;5064173;28;20086;-88
2020/12/18 07:41:10;;;;;;;1.63;0.77;;;;;;;14.10;77.62;99790.63;5066425;28;20020;-89
2020/12/18 07:43:36;;;;;;;4.00;0.95;;;;;;;14.07;77.69;99789.06;5071880;28;20130;-88
2020/12/18 07:46:05;;;;;;;4.75;0.80;;;;;;;14.19;76.86;99802.94;5070999;28;20050;-89
2020/12/18 07:48:33;;;;;;;0.65;0.40;;;;;;;14.05;78.13;99777.00;5069283;28;20028;-88
2020/12/18 07:51:19;;;;;;;0.70;0.20;;;;;;;14.14;77.69;99770.00;5094371;22;20078;-89
2020/12/18 07:53:46;;;;;;;3.58;0.63;;;;;;;14.17;77.79;99773.22;5112484;28;20074;-90
2020/12/18 07:56:16;;;;;;;1.75;0.30;;;;;;;14.32;76.90;99801.81;5112777;28;20385;-87
2020/12/18 07:58:56;;;;;;;1.33;0.20;;;;;;;14.03;77.79;99781.59;5113093;28;20030;-89
2020/12/18 08:01:27;;;;;;;2.17;0.28;;;;;;;14.14;77.61;99756.81;5105114;28;20387;-89
2020/12/18 08:03:56;;;;;;;1.90;0.40;;;;;;;14.28;76.75;99765.13;5074519;28;20474;-89
2020/12/18 08:06:23;;;;;;;2.25;0.43;;;;;;;14.32;76.51;99744.56;5090167;28;20470;-90
2020/12/18 08:08:53;;;;;;;2.53;0.30;;;;;;;13.96;78.48;99756.72;5095582;28;20012;-90
2020/12/18 08:11:19;;;;;;;5.20;0.57;;;;;;;13.93;78.01;99739.38;5102521;28;20030;-89
2020/12/18 08:13:45;;;;;;;0.75;0.20;;;;;;;13.64;79.47;99742.03;5108548;28;20063;-89
2020/12/18 08:16:16;;;;;;;2.05;0.32;;;;;;;13.80;78.69;99715.94;5091607;28;20067;-89
2020/12/18 08:19:09;;;;;;;3.45;0.40;;;;;;;13.80;78.75;99746.75;5092155;28;20355;-90
2020/12/18 08:21:40;;;;;;;3.45;0.50;;;;;;;13.67;79.33;99707.47;5080857;28;20040;-89
2020/12/18 08:24:31;;;;;;;1.25;0.40;;;;;;;13.76;80.99;99724.25;5092150;28;20474;-89
2020/12/18 08:27:11;;;;;;;2.90;0.57;;;;;;;13.64;79.21;99750.78;5091468;28;20111;-89
2020/12/18 08:29:40;;;;;;;2.72;0.60;;;;;;;13.58;79.81;99732.06;5088524;28;20031;-89
2020/12/18 08:32:08;;;;;;;2.58;0.43;;;;;;;13.91;78.80;99725.50;5080056;28;20028;-89
2020/12/18 08:34:35;;;;;;;4.18;0.60;;;;;;;14.15;77.32;99725.00;5092490;28;20470;-89
2020/12/18 08:37:02;;;;;;;3.42;0.45;;;;;;;14.14;77.38;99735.69;5075423;28;20024;-90
2020/12/18 08:39:32;;;;;;;5.57;0.73;;;;;;;14.01;78.06;99738.66;5091540;28;20075;-90
2020/12/18 08:41:57;;;;;;;3.13;0.40;;;;;;;13.96;78.43;99749.66;5093584;28;20024;-90
2020/12/18 08:44:27;;;;;;;3.88;0.77;;;;;;;14.01;77.82;99749.22;5092249;28;20020;-89
2020/12/18 08:46:52;;;;;;;3.45;0.60;;;;;;;14.10;77.65;99751.00;5092949;28;20024;-90
2020/12/18 08:49:28;;;;;;;6.13;0.82;;;;;;;14.23;76.96;99754.16;5091990;28;20030;-90
2020/12/18 08:52:03;;;;;;;3.20;0.70;;;;;;;13.98;78.03;99757.41;5092800;28;20115;-89
2020/12/18 08:54:34;;;;;;;2.85;0.73;;;;;;;14.04;77.92;99764.75;5093893;28;20081;-89
2020/12/18 08:57:12;;;;;;;11.93;1.40;;;;;;;14.13;77.62;99747.25;5089612;28;20036;-88
2020/12/18 08:59:55;;;;;;;5.38;0.85;;;;;;;14.36;77.09;99753.84;5081986;28;20031;-89
2020/12/18 09:02:20;;;;;;;5.40;1.02;;;;;;;14.26;77.08;99719.53;5091713;28;20035;-89
2020/12/18 09:05:06;;;;;;;5.95;0.90;;;;;;;14.29;77.43;99729.81;5091061;28;20051;-88
2020/12/18 09:08:02;;;;;;;9.18;1.30;;;;;;;14.52;76.58;99729.44;5091668;28;20039;-88
2020/12/18 09:10:27;;;;;;;8.13;1.02;;;;;;;14.41;77.13;99741.03;5080481;28;20040;-89
2020/12/18 09:12:52;;;;;;;6.13;0.93;;;;;;;14.19;77.75;99758.06;5092795;28;20084;-89
2020/12/18 09:15:22;;;;;;;5.43;0.80;;;;;;;14.20;77.49;99765.00;5092578;28;20036;-88
2020/12/18 09:18:04;;;;;;;5.93;0.90;;;;;;;14.33;77.46;99748.84;5095257;28;20024;-89
2020/12/18 09:20:41;;;;;;;2.35;0.70;;;;;;;14.45;76.99;99754.78;5096639;28;20488;-91
2020/12/18 09:23:09;;;;;;;8.13;1.00;;;;;;;14.20;77.38;99751.81;5092602;28;20063;-89
2020/12/18 09:25:40;;;;;;;4.68;0.40;;;;;;;14.34;77.07;99731.22;5098725;28;20366;-90
2020/12/18 09:28:11;;;;;;;4.45;0.77;;;;;;;14.26;77.11;99730.09;5098963;28;20392;-90
2020/12/18 09:30:36;;;;;;;3.20;0.75;;;;;;;14.22;77.17;99727.91;5088691;28;20077;-89
2020/12/18 09:33:10;;;;;;;4.50;0.75;;;;;;;14.44;76.34;99734.63;5095725;28;20119;-90
2020/12/18 09:35:35;;;;;;;3.03;0.50;;;;;;;14.30;76.33;99735.94;5075906;28;20020;-90
2020/12/18 09:38:01;;;;;;;2.17;0.50;;;;;;;14.32;76.72;99723.41;5078151;28;20024;-91
2020/12/18 09:40:26;;;;;;;1.80;0.73;;;;;;;14.22;76.63;99734.03;5095449;28;20096;-90
2020/12/18 09:42:52;;;;;;;2.20;0.88;;;;;;;14.10;76.83;99735.19;5095600;28;20419;-89
2020/12/18 09:45:17;;;;;;;5.15;0.52;;;;;;;14.03;77.16;99728.78;5094893;28;20028;-90
2020/12/18 09:47:42;;;;;;;5.18;0.50;;;;;;;14.32;76.57;99712.03;5077300;28;20024;-91
2020/12/18 09:50:08;;;;;;;3.55;0.52;;;;;;;14.02;77.46;99674.31;5093893;28;20023;-90
2020/12/18 09:52:33;;;;;;;2.63;0.30;;;;;;;13.92;77.71;99678.81;5077776;28;20067;-90
2020/12/18 09:54:58;;;;;;;0.90;0.20;;;;;;;14.21;77.37;99665.50;5094079;28;20523;-90
2020/12/18 09:57:25;;;;;;;1.98;0.30;;;;;;;14.22;77.16;99683.84;5097565;28;20024;-90
2020/12/18 09:59:51;;;;;;;1.83;0.30;;;;;;;14.18;77.26;99669.28;5077050;28;20359;-89
2020/12/18 10:02:16;;;;;;;2.25;0.40;;;;;;;14.00;77.71;99655.16;5094202;28;20099;-90
2020/12/18 10:04:41;;;;;;;1.23;0.25;;;;;;;14.07;77.72;99672.09;5094028;28;20532;-89
2020/12/18 10:07:07;;;;;;;0.98;0.30;;;;;;;13.82;78.21;99671.78;5101146;28;20062;-90
2020/12/18 10:09:32;;;;;;;3.65;0.52;;;;;;;13.86;77.84;99675.78;5110619;28;20055;-90
2020/12/18 10:11:59;;;;;;;2.63;0.38;;;;;;;14.04;78.04;99683.78;5099522;28;20024;-89
2020/12/18 10:14:24;;;;;;;2.80;0.50;;;;;;;13.97;77.88;99666.03;5094048;28;20363;-90
2020/12/18 10:16:50;;;;;;;2.88;0.60;;;;;;;13.73;78.69;99664.72;5094492;28;20028;-90
2020/12/18 10:19:15;;;;;;;3.40;0.40;;;;;;;14.24;77.04;99671.34;5104357;28;20035;-90
2020/12/18 10:21:40;;;;;;;5.10;0.60;;;;;;;14.09;77.49;99691.25;5093256;28;20032;-90
2020/12/18 10:24:06;;;;;;;4.65;0.40;;;;;;;14.04;77.72;99698.75;5094011;28;20026;-91
2020/12/18 10:26:31;;;;;;;4.43;0.50;;;;;;;14.22;77.43;99707.63;5100292;28;20012;-90
2020/12/18 10:28:57;;;;;;;6.88;0.90;;;;;;;14.02;77.90;99706.84;5093448;28;20110;-91
2020/12/18 10:31:22;;;;;;;7.70;1.55;;;;;;;13.93;78.35;99683.94;5093730;28;20028;-89
2020/12/18 10:33:47;;;;;;;6.63;0.68;;;;;;;14.22;77.50;99683.84;5076730;28;20039;-90
2020/12/18 10:36:13;;;;;;;5.55;0.68;;;;;;;13.89;78.74;99674.66;5108817;28;20063;-89
2020/12/18 10:38:38;;;;;;;2.95;0.55;;;;;;;14.16;78.11;99687.06;5095468;28;20019;-90
2020/12/18 10:41:03;;;;;;;4.15;0.40;;;;;;;14.12;77.95;99690.97;5085119;28;20127;-91
2020/12/18 10:43:28;;;;;;;5.25;0.85;;;;;;;14.23;78.03;99667.00;5083202;28;20119;-88
2020/12/18 10:45:54;;;;;;;1.58;0.40;;;;;;;14.19;78.50;99670.09;5093762;28;20146;-88
2020/12/18 10:48:19;;;;;;;3.28;0.52;;;;;;;14.38;77.55;99662.09;5094125;28;20069;-88
2020/12/18 10:50:44;;;;;;;4.72;0.60;;;;;;;14.27;78.12;99664.91;5095370;28;20492;-89
2020/12/18 10:53:10;;;;;;;1.80;0.32;;;;;;;14.21;78.34;99663.69;5095495;28;20027;-89
2020/12/18 10:55:35;;;;;;;1.63;0.40;;;;;;;14.15;79.09;99674.00;5098613;28;20028;-89
2020/12/18 10:58:00;;;;;;;3.70;0.30;;;;;;;14.43;77.92;99666.94;5113567;28;20497;-90
2020/12/18 11:00:26;;;;;;;1.48;0.20;;;;;;;14.29;78.64;99682.28;5099163;28;20035;-89
2020/12/18 11:02:51;;;;;;;1.35;0.30;;;;;;;14.45;78.32;99671.09;5096049;28;20028;-88
2020/12/18 11:05:16;;;;;;;3.47;0.82;;;;;;;14.44;78.25;99650.13;5080362;28;20056;-90
2020/12/18 11:07:42;;;;;;;2.38;0.43;;;;;;;14.39;78.59;99649.72;5096559;28;20052;-91
2020/12/18 11:10:07;;;;;;;3.17;0.40;;;;;;;14.17;79.15;99664.97;5078477;28;20031;-89
2020/12/18 11:12:32;;;;;;;1.88;0.30;;;;;;;14.42;78.79;99667.91;5105749;28;20043;-90
2020/12/18 11:14:58;;;;;;;1.38;0.40;;;;;;;14.64;78.08;99659.59;5100364;28;20023;-90
2020/12/18 11:17:23;;;;;;;1.92;0.30;;;;;;;14.49;78.46;99658.41;5091068;28;20051;-91
2020/12/18 11:19:48;;;;;;;3.75;0.40;;;;;;;14.77;77.33;99661.06;5097119;28;20062;-91
2020/12/18 11:22:15;;;;;;;2.97;0.50;;;;;;;14.51;78.14;99655.63;5093156;28;20039;-92
2020/12/18 11:24:42;;;;;;;4.40;0.60;;;;;;;14.37;78.27;99651.66;5084095;28;20470;-91
2020/12/18 11:27:07;;;;;;;3.08;0.40;;;;;;;14.46;78.49;99645.50;5099389;28;20027;-90
2020/12/18 11:29:33;;;;;;;3.03;0.60;;;;;;;14.46;78.29;99638.41;5096211;28;20027;-92
2020/12/18 11:31:58;;;;;;;3.15;0.30;;;;;;;14.45;78.40;99643.84;5100256;28;20042;-92
2020/12/18 11:34:23;;;;;;;0.90;0.28;;;;;;;14.45;78.67;99654.41;5095225;28;20482;-90
2020/12/18 11:36:49;;;;;;;2.05;0.30;;;;;;;14.54;78.23;99650.06;5106001;28;20054;-91